sensor_id;sensor_type;location;lat;lon;timestamp;P1;durP1;ratioP1;P2;durP2;ratioP2
19621;SDS011;9958;33.196;-97.114;2022-11-20T00:01:31;2.85;;;1.70;;
19621;SDS011;9958;33.196;-97.114;2022-11-20T00:03:59;3.88;;;1.60;;
19621;SDS011;9958;33.196;-97.114;2022-11-20T00:06:29;5.50;;;1.40;;
19621;SDS011;9958;33.196;-97.114;2022-11-20T00:08:58;1.30;;;1.20;;
19621;SDS011;9958;33.196;-97.114;2022-11-20T00:11:28;2.22;;;1.58;;
19621;SDS011;9958;33.196;-97.114;2022-11-20T00:13:58;3.42;;;1.48;;
19621;SDS011;9958;33.196;-97.114;2022-11-20T00:16:29;7.32;;;1.77;;
19621;SDS011;9958;33.196;-97.114;2022-11-20T00:18:58;1.98;;;1.40;;
19621;SDS011;9958;33.196;-97.114;2022-11-20T00:21:27;1.92;;;1.45;;
19621;SDS011;9958;33.196;-97.114;2022-11-20T00:23:57;3.65;;;1.90;;
19621;SDS011;9958;33.196;-97.114;2022-11-20T00:26:26;2.00;;;1.50;;
19621;SDS011;9958;33.196;-97.114;2022-11-20T00:28:56;2.88;;;1.83;;
19621;SDS011;9958;33.196;-97.114;2022-11-20T00:31:25;3.72;;;2.30;;
19621;SDS011;9958;33.196;-97.114;2022-11-20T00:33:54;7.22;;;2.50;;
19621;SDS011;9958;33.196;-97.114;2022-11-20T00:36:23;3.40;;;2.28;;
19621;SDS011;9958;33.196;-97.114;2022-11-20T00:38:58;6.63;;;3.03;;
19621;SDS011;9958;33.196;-97.114;2022-11-20T00:41:27;5.05;;;3.40;;
19621;SDS011;9958;33.196;-97.114;2022-11-20T00:43:56;8.27;;;3.50;;
19621;SDS011;9958;33.196;-97.114;2022-11-20T00:46:25;5.25;;;3.08;;
19621;SDS011;9958;33.196;-97.114;2022-11-20T00:48:55;6.18;;;3.13;;
19621;SDS011;9958;33.196;-97.114;2022-11-20T00:51:24;4.78;;;2.58;;
19621;SDS011;9958;33.196;-97.114;2022-11-20T00:53:56;3.95;;;2.67;;
19621;SDS011;9958;33.196;-97.114;2022-11-20T00:56:25;6.30;;;3.83;;
19621;SDS011;9958;33.196;-97.114;2022-11-20T00:58:53;9.75;;;3.22;;
19621;SDS011;9958;33.196;-97.114;2022-11-20T01:01:22;9.38;;;3.40;;
19621;SDS011;9958;33.196;-97.114;2022-11-20T01:03:52;8.45;;;3.80;;
19621;SDS011;9958;33.196;-97.114;2022-11-20T01:06:22;6.93;;;3.95;;
19621;SDS011;9958;33.196;-97.114;2022-11-20T01:08:52;8.18;;;4.05;;
19621;SDS011;9958;33.196;-97.114;2022-11-20T01:11:24;5.25;;;2.95;;
19621;SDS011;9958;33.196;-97.114;2022-11-20T01:13:54;6.82;;;2.55;;
19621;SDS011;9958;33.196;-97.114;2022-11-20T01:16:24;3.58;;;2.95;;
19621;SDS011;9958;33.196;-97.114;2022-11-20T01:18:55;4.75;;;2.17;;
19621;SDS011;9958;33.196;-97.114;2022-11-20T01:21:26;2.67;;;2.28;;
19621;SDS011;9958;33.196;-97.114;2022-11-20T01:23:55;3.30;;;2.60;;
19621;SDS011;9958;33.196;-97.114;2022-11-20T01:26:26;6.72;;;3.42;;
19621;SDS011;9958;33.196;-97.114;2022-11-20T01:28:56;3.05;;;2.75;;
19621;SDS011;9958;33.196;-97.114;2022-11-20T01:31:25;4.82;;;3.17;;
19621;SDS011;9958;33.196;-97.114;2022-11-20T01:33:55;6.03;;;3.10;;
19621;SDS011;9958;33.196;-97.114;2022-11-20T01:36:25;4.30;;;3.15;;
19621;SDS011;9958;33.196;-97.114;2022-11-20T01:38:56;4.45;;;3.10;;
19621;SDS011;9958;33.196;-97.114;2022-11-20T01:41:27;4.10;;;3.17;;
19621;SDS011;9958;33.196;-97.114;2022-11-20T01:44:15;3.65;;;3.17;;
19621;SDS011;9958;33.196;-97.114;2022-11-20T01:46:47;5.45;;;3.20;;
19621;SDS011;9958;33.196;-97.114;2022-11-20T01:49:22;9.68;;;4.45;;
19621;SDS011;9958;33.196;-97.114;2022-11-20T01:51:55;5.57;;;3.10;;
19621;SDS011;9958;33.196;-97.114;2022-11-20T01:54:28;3.50;;;3.20;;
19621;SDS011;9958;33.196;-97.114;2022-11-20T01:57:02;6.30;;;3.10;;
19621;SDS011;9958;33.196;-97.114;2022-11-20T01:59:36;5.57;;;3.40;;
19621;SDS011;9958;33.196;-97.114;2022-11-20T02:02:11;6.50;;;3.67;;
19621;SDS011;9958;33.196;-97.114;2022-11-20T02:04:39;5.82;;;3.38;;
19621;SDS011;9958;33.196;-97.114;2022-11-20T02:07:07;4.38;;;3.53;;
19621;SDS011;9958;33.196;-97.114;2022-11-20T02:09:37;6.15;;;3.92;;
19621;SDS011;9958;33.196;-97.114;2022-11-20T02:12:07;4.90;;;3.15;;
19621;SDS011;9958;33.196;-97.114;2022-11-20T02:14:56;4.90;;;2.90;;
19621;SDS011;9958;33.196;-97.114;2022-11-20T02:17:23;5.82;;;3.17;;
19621;SDS011;9958;33.196;-97.114;2022-11-20T02:19:52;3.40;;;2.65;;
19621;SDS011;9958;33.196;-97.114;2022-11-20T02:22:22;3.50;;;2.38;;
19621;SDS011;9958;33.196;-97.114;2022-11-20T02:24:56;3.33;;;2.20;;
19621;SDS011;9958;33.196;-97.114;2022-11-20T02:27:29;3.97;;;2.05;;
19621;SDS011;9958;33.196;-97.114;2022-11-20T02:29:59;3.72;;;2.33;;
19621;SDS011;9958;33.196;-97.114;2022-11-20T02:32:30;5.35;;;2.40;;
19621;SDS011;9958;33.196;-97.114;2022-11-20T02:35:06;5.32;;;2.60;;
19621;SDS011;9958;33.196;-97.114;2022-11-20T02:37:36;2.03;;;1.77;;
19621;SDS011;9958;33.196;-97.114;2022-11-20T02:40:09;3.33;;;2.20;;
19621;SDS011;9958;33.196;-97.114;2022-11-20T02:42:38;2.40;;;1.85;;
19621;SDS011;9958;33.196;-97.114;2022-11-20T02:45:07;3.35;;;1.55;;
19621;SDS011;9958;33.196;-97.114;2022-11-20T02:47:37;1.73;;;1.63;;
19621;SDS011;9958;33.196;-97.114;2022-11-20T02:50:07;1.58;;;1.48;;
19621;SDS011;9958;33.196;-97.114;2022-11-20T02:52:36;2.38;;;1.75;;
19621;SDS011;9958;33.196;-97.114;2022-11-20T02:55:05;4.97;;;1.98;;
19621;SDS011;9958;33.196;-97.114;2022-11-20T02:57:35;6.20;;;2.67;;
19621;SDS011;9958;33.196;-97.114;2022-11-20T03:00:04;2.40;;;1.92;;
19621;SDS011;9958;33.196;-97.114;2022-11-20T03:02:33;3.95;;;2.60;;
19621;SDS011;9958;33.196;-97.114;2022-11-20T03:05:02;3.40;;;2.08;;
19621;SDS011;9958;33.196;-97.114;2022-11-20T03:07:30;3.17;;;2.15;;
19621;SDS011;9958;33.196;-97.114;2022-11-20T03:09:59;2.78;;;2.28;;
19621;SDS011;9958;33.196;-97.114;2022-11-20T03:12:28;4.63;;;2.30;;
19621;SDS011;9958;33.196;-97.114;2022-11-20T03:14:57;4.63;;;2.75;;
19621;SDS011;9958;33.196;-97.114;2022-11-20T03:17:25;3.13;;;2.38;;
19621;SDS011;9958;33.196;-97.114;2022-11-20T03:19:54;5.20;;;2.40;;
19621;SDS011;9958;33.196;-97.114;2022-11-20T03:22:23;4.30;;;1.73;;
19621;SDS011;9958;33.196;-97.114;2022-11-20T03:24:51;3.25;;;2.38;;
19621;SDS011;9958;33.196;-97.114;2022-11-20T03:27:20;18.17;;;2.72;;
19621;SDS011;9958;33.196;-97.114;2022-11-20T03:29:49;3.97;;;2.17;;
19621;SDS011;9958;33.196;-97.114;2022-11-20T03:32:18;3.55;;;2.03;;
19621;SDS011;9958;33.196;-97.114;2022-11-20T03:34:46;2.15;;;1.92;;
19621;SDS011;9958;33.196;-97.114;2022-11-20T03:37:14;3.55;;;2.08;;
19621;SDS011;9958;33.196;-97.114;2022-11-20T03:39:43;1.77;;;1.60;;
19621;SDS011;9958;33.196;-97.114;2022-11-20T03:42:11;2.28;;;1.80;;
19621;SDS011;9958;33.196;-97.114;2022-11-20T03:44:54;3.10;;;2.30;;
19621;SDS011;9958;33.196;-97.114;2022-11-20T03:47:22;3.60;;;1.83;;
19621;SDS011;9958;33.196;-97.114;2022-11-20T03:49:53;2.58;;;2.30;;
19621;SDS011;9958;33.196;-97.114;2022-11-20T03:52:31;2.53;;;2.10;;
19621;SDS011;9958;33.196;-97.114;2022-11-20T03:55:00;4.05;;;2.10;;
19621;SDS011;9958;33.196;-97.114;2022-11-20T03:57:28;6.97;;;2.22;;
19621;SDS011;9958;33.196;-97.114;2022-11-20T03:59:58;2.13;;;1.70;;
19621;SDS011;9958;33.196;-97.114;2022-11-20T04:02:26;2.83;;;1.63;;
19621;SDS011;9958;33.196;-97.114;2022-11-20T04:04:54;3.13;;;2.42;;
19621;SDS011;9958;33.196;-97.114;2022-11-20T04:07:23;4.13;;;1.88;;
19621;SDS011;9958;33.196;-97.114;2022-11-20T04:09:51;3.97;;;2.30;;
19621;SDS011;9958;33.196;-97.114;2022-11-20T04:12:19;2.67;;;2.00;;
19621;SDS011;9958;33.196;-97.114;2022-11-20T04:14:47;2.53;;;1.80;;
19621;SDS011;9958;33.196;-97.114;2022-11-20T04:17:17;2.05;;;1.67;;
19621;SDS011;9958;33.196;-97.114;2022-11-20T04:19:47;3.47;;;2.00;;
19621;SDS011;9958;33.196;-97.114;2022-11-20T04:22:15;2.20;;;1.80;;
19621;SDS011;9958;33.196;-97.114;2022-11-20T04:24:43;2.70;;;2.00;;
19621;SDS011;9958;33.196;-97.114;2022-11-20T04:27:12;2.22;;;1.55;;
19621;SDS011;9958;33.196;-97.114;2022-11-20T04:29:40;2.63;;;1.73;;
19621;SDS011;9958;33.196;-97.114;2022-11-20T04:32:09;3.20;;;1.70;;
19621;SDS011;9958;33.196;-97.114;2022-11-20T04:34:38;6.40;;;2.38;;
19621;SDS011;9958;33.196;-97.114;2022-11-20T04:37:07;2.72;;;2.28;;
19621;SDS011;9958;33.196;-97.114;2022-11-20T04:39:35;3.00;;;2.00;;
19621;SDS011;9958;33.196;-97.114;2022-11-20T04:42:03;3.80;;;2.45;;
19621;SDS011;9958;33.196;-97.114;2022-11-20T04:44:49;2.53;;;1.85;;
19621;SDS011;9958;33.196;-97.114;2022-11-20T04:47:17;6.55;;;2.03;;
19621;SDS011;9958;33.196;-97.114;2022-11-20T04:49:47;2.83;;;1.80;;
19621;SDS011;9958;33.196;-97.114;2022-11-20T04:52:15;4.93;;;1.92;;
19621;SDS011;9958;33.196;-97.114;2022-11-20T04:54:43;2.33;;;1.77;;
19621;SDS011;9958;33.196;-97.114;2022-11-20T04:57:14;2.08;;;1.40;;
19621;SDS011;9958;33.196;-97.114;2022-11-20T04:59:42;2.42;;;1.85;;
19621;SDS011;9958;33.196;-97.114;2022-11-20T05:02:11;4.57;;;2.53;;
19621;SDS011;9958;33.196;-97.114;2022-11-20T05:04:39;5.55;;;1.77;;
19621;SDS011;9958;33.196;-97.114;2022-11-20T05:07:09;2.35;;;1.65;;
19621;SDS011;9958;33.196;-97.114;2022-11-20T05:09:37;1.65;;;1.48;;
19621;SDS011;9958;33.196;-97.114;2022-11-20T05:12:06;4.82;;;1.42;;
19621;SDS011;9958;33.196;-97.114;2022-11-20T05:14:35;1.55;;;1.27;;
19621;SDS011;9958;33.196;-97.114;2022-11-20T05:17:03;1.75;;;1.65;;
19621;SDS011;9958;33.196;-97.114;2022-11-20T05:19:31;3.03;;;1.45;;
19621;SDS011;9958;33.196;-97.114;2022-11-20T05:21:59;0.93;;;0.93;;
19621;SDS011;9958;33.196;-97.114;2022-11-20T05:24:29;3.22;;;1.50;;
19621;SDS011;9958;33.196;-97.114;2022-11-20T05:26:58;1.40;;;1.30;;
19621;SDS011;9958;33.196;-97.114;2022-11-20T05:29:26;1.70;;;1.42;;
19621;SDS011;9958;33.196;-97.114;2022-11-20T05:31:54;2.45;;;1.50;;
19621;SDS011;9958;33.196;-97.114;2022-11-20T05:34:22;2.13;;;1.20;;
19621;SDS011;9958;33.196;-97.114;2022-11-20T05:36:51;0.95;;;0.85;;
19621;SDS011;9958;33.196;-97.114;2022-11-20T05:39:19;1.95;;;1.40;;
19621;SDS011;9958;33.196;-97.114;2022-11-20T05:41:49;1.65;;;1.15;;
19621;SDS011;9958;33.196;-97.114;2022-11-20T05:44:37;3.30;;;1.23;;
19621;SDS011;9958;33.196;-97.114;2022-11-20T05:47:05;1.73;;;1.02;;
19621;SDS011;9958;33.196;-97.114;2022-11-20T05:49:33;1.35;;;0.98;;
19621;SDS011;9958;33.196;-97.114;2022-11-20T05:52:02;1.20;;;1.10;;
19621;SDS011;9958;33.196;-97.114;2022-11-20T05:54:30;1.08;;;0.98;;
19621;SDS011;9958;33.196;-97.114;2022-11-20T05:57:00;1.20;;;0.95;;
19621;SDS011;9958;33.196;-97.114;2022-11-20T05:59:29;2.22;;;1.60;;
19621;SDS011;9958;33.196;-97.114;2022-11-20T06:01:57;1.55;;;1.40;;
19621;SDS011;9958;33.196;-97.114;2022-11-20T06:04:25;2.28;;;1.05;;
19621;SDS011;9958;33.196;-97.114;2022-11-20T06:06:53;1.38;;;1.17;;
19621;SDS011;9958;33.196;-97.114;2022-11-20T06:09:22;1.30;;;1.20;;
19621;SDS011;9958;33.196;-97.114;2022-11-20T06:11:50;1.63;;;1.52;;
19621;SDS011;9958;33.196;-97.114;2022-11-20T06:14:20;6.45;;;1.30;;
19621;SDS011;9958;33.196;-97.114;2022-11-20T06:16:48;2.85;;;1.85;;
19621;SDS011;9958;33.196;-97.114;2022-11-20T06:19:16;0.85;;;0.85;;
19621;SDS011;9958;33.196;-97.114;2022-11-20T06:21:44;2.10;;;1.27;;
19621;SDS011;9958;33.196;-97.114;2022-11-20T06:24:14;1.02;;;1.00;;
19621;SDS011;9958;33.196;-97.114;2022-11-20T06:26:43;1.60;;;1.30;;
19621;SDS011;9958;33.196;-97.114;2022-11-20T06:29:11;2.65;;;1.45;;
19621;SDS011;9958;33.196;-97.114;2022-11-20T06:31:41;1.40;;;1.30;;
19621;SDS011;9958;33.196;-97.114;2022-11-20T06:34:10;1.27;;;1.23;;
19621;SDS011;9958;33.196;-97.114;2022-11-20T06:36:38;1.35;;;1.25;;
19621;SDS011;9958;33.196;-97.114;2022-11-20T06:39:06;3.28;;;1.35;;
19621;SDS011;9958;33.196;-97.114;2022-11-20T06:41:34;1.08;;;1.02;;
19621;SDS011;9958;33.196;-97.114;2022-11-20T06:44:03;2.17;;;1.70;;
19621;SDS011;9958;33.196;-97.114;2022-11-20T06:46:32;1.85;;;1.42;;
19621;SDS011;9958;33.196;-97.114;2022-11-20T06:49:02;6.82;;;1.83;;
19621;SDS011;9958;33.196;-97.114;2022-11-20T06:51:30;1.48;;;1.27;;
19621;SDS011;9958;33.196;-97.114;2022-11-20T06:53:58;2.63;;;1.77;;
19621;SDS011;9958;33.196;-97.114;2022-11-20T06:56:27;2.28;;;1.30;;
19621;SDS011;9958;33.196;-97.114;2022-11-20T06:58:55;2.13;;;1.20;;
19621;SDS011;9958;33.196;-97.114;2022-11-20T07:01:23;1.67;;;1.55;;
19621;SDS011;9958;33.196;-97.114;2022-11-20T07:03:52;0.98;;;0.70;;
19621;SDS011;9958;33.196;-97.114;2022-11-20T07:06:22;1.27;;;1.17;;
19621;SDS011;9958;33.196;-97.114;2022-11-20T07:08:50;2.30;;;1.17;;
19621;SDS011;9958;33.196;-97.114;2022-11-20T07:11:18;6.05;;;1.60;;
19621;SDS011;9958;33.196;-97.114;2022-11-20T07:13:47;3.42;;;1.27;;
19621;SDS011;9958;33.196;-97.114;2022-11-20T07:16:15;2.67;;;1.55;;
19621;SDS011;9958;33.196;-97.114;2022-11-20T07:18:43;2.72;;;1.52;;
19621;SDS011;9958;33.196;-97.114;2022-11-20T07:21:12;3.17;;;1.27;;
19621;SDS011;9958;33.196;-97.114;2022-11-20T07:23:42;2.83;;;1.80;;
19621;SDS011;9958;33.196;-97.114;2022-11-20T07:26:10;1.65;;;1.25;;
19621;SDS011;9958;33.196;-97.114;2022-11-20T07:28:39;0.98;;;0.98;;
19621;SDS011;9958;33.196;-97.114;2022-11-20T07:31:07;1.13;;;1.02;;
19621;SDS011;9958;33.196;-97.114;2022-11-20T07:33:35;2.17;;;1.23;;
19621;SDS011;9958;33.196;-97.114;2022-11-20T07:36:04;1.65;;;1.55;;
19621;SDS011;9958;33.196;-97.114;2022-11-20T07:38:32;0.73;;;0.73;;
19621;SDS011;9958;33.196;-97.114;2022-11-20T07:41:02;3.80;;;1.15;;
19621;SDS011;9958;33.196;-97.114;2022-11-20T07:43:31;2.20;;;1.20;;
19621;SDS011;9958;33.196;-97.114;2022-11-20T07:45:59;2.95;;;1.58;;
19621;SDS011;9958;33.196;-97.114;2022-11-20T07:48:29;1.20;;;1.00;;
19621;SDS011;9958;33.196;-97.114;2022-11-20T07:50:57;4.30;;;0.95;;
19621;SDS011;9958;33.196;-97.114;2022-11-20T07:53:25;1.00;;;0.95;;
19621;SDS011;9958;33.196;-97.114;2022-11-20T07:55:54;0.90;;;0.90;;
19621;SDS011;9958;33.196;-97.114;2022-11-20T07:58:23;1.27;;;1.15;;
19621;SDS011;9958;33.196;-97.114;2022-11-20T08:00:52;1.70;;;1.25;;
19621;SDS011;9958;33.196;-97.114;2022-11-20T08:03:20;1.05;;;1.00;;
19621;SDS011;9958;33.196;-97.114;2022-11-20T08:05:49;1.65;;;1.55;;
19621;SDS011;9958;33.196;-97.114;2022-11-20T08:08:17;1.15;;;1.00;;
19621;SDS011;9958;33.196;-97.114;2022-11-20T08:10:45;1.55;;;1.45;;
19621;SDS011;9958;33.196;-97.114;2022-11-20T08:13:14;1.83;;;1.45;;
19621;SDS011;9958;33.196;-97.114;2022-11-20T08:16:00;1.00;;;1.00;;
19621;SDS011;9958;33.196;-97.114;2022-11-20T08:18:29;1.10;;;1.10;;
19621;SDS011;9958;33.196;-97.114;2022-11-20T08:20:57;1.70;;;1.40;;
19621;SDS011;9958;33.196;-97.114;2022-11-20T08:23:28;1.35;;;1.13;;
19621;SDS011;9958;33.196;-97.114;2022-11-20T08:25:56;2.50;;;1.23;;
19621;SDS011;9958;33.196;-97.114;2022-11-20T08:28:25;1.20;;;1.10;;
19621;SDS011;9958;33.196;-97.114;2022-11-20T08:30:57;2.20;;;1.10;;
19621;SDS011;9958;33.196;-97.114;2022-11-20T08:33:27;1.20;;;1.20;;
19621;SDS011;9958;33.196;-97.114;2022-11-20T08:36:00;1.33;;;1.23;;
19621;SDS011;9958;33.196;-97.114;2022-11-20T08:38:30;1.58;;;1.33;;
19621;SDS011;9958;33.196;-97.114;2022-11-20T08:40:59;1.65;;;1.17;;
19621;SDS011;9958;33.196;-97.114;2022-11-20T08:43:45;1.23;;;1.15;;
19621;SDS011;9958;33.196;-97.114;2022-11-20T08:46:13;2.13;;;0.95;;
19621;SDS011;9958;33.196;-97.114;2022-11-20T08:48:43;1.65;;;0.93;;
19621;SDS011;9958;33.196;-97.114;2022-11-20T08:51:12;1.42;;;1.27;;
19621;SDS011;9958;33.196;-97.114;2022-11-20T08:53:41;1.20;;;1.10;;
19621;SDS011;9958;33.196;-97.114;2022-11-20T08:56:09;1.30;;;0.80;;
19621;SDS011;9958;33.196;-97.114;2022-11-20T08:58:38;3.20;;;0.98;;
19621;SDS011;9958;33.196;-97.114;2022-11-20T09:01:06;2.50;;;1.27;;
19621;SDS011;9958;33.196;-97.114;2022-11-20T09:03:35;1.58;;;0.98;;
19621;SDS011;9958;33.196;-97.114;2022-11-20T09:06:05;1.48;;;1.30;;
19621;SDS011;9958;33.196;-97.114;2022-11-20T09:08:34;1.45;;;1.35;;
19621;SDS011;9958;33.196;-97.114;2022-11-20T09:11:03;0.82;;;0.82;;
19621;SDS011;9958;33.196;-97.114;2022-11-20T09:13:32;2.00;;;1.33;;
19621;SDS011;9958;33.196;-97.114;2022-11-20T09:16:03;1.40;;;1.30;;
19621;SDS011;9958;33.196;-97.114;2022-11-20T09:18:33;1.67;;;1.45;;
19621;SDS011;9958;33.196;-97.114;2022-11-20T09:21:05;1.13;;;1.00;;
19621;SDS011;9958;33.196;-97.114;2022-11-20T09:23:36;2.33;;;1.48;;
19621;SDS011;9958;33.196;-97.114;2022-11-20T09:26:05;0.82;;;0.82;;
19621;SDS011;9958;33.196;-97.114;2022-11-20T09:28:35;1.23;;;1.10;;
19621;SDS011;9958;33.196;-97.114;2022-11-20T09:31:04;3.13;;;1.40;;
19621;SDS011;9958;33.196;-97.114;2022-11-20T09:33:33;2.63;;;1.40;;
19621;SDS011;9958;33.196;-97.114;2022-11-20T09:36:04;2.58;;;1.60;;
19621;SDS011;9958;33.196;-97.114;2022-11-20T09:38:32;1.00;;;1.00;;
19621;SDS011;9958;33.196;-97.114;2022-11-20T09:41:02;1.95;;;1.10;;
19621;SDS011;9958;33.196;-97.114;2022-11-20T09:43:36;1.58;;;1.05;;
19621;SDS011;9958;33.196;-97.114;2022-11-20T09:46:13;0.93;;;0.88;;
19621;SDS011;9958;33.196;-97.114;2022-11-20T09:48:49;2.83;;;1.23;;
19621;SDS011;9958;33.196;-97.114;2022-11-20T09:51:30;0.75;;;0.70;;
19621;SDS011;9958;33.196;-97.114;2022-11-20T09:54:14;2.50;;;0.88;;
19621;SDS011;9958;33.196;-97.114;2022-11-20T09:56:46;1.73;;;1.25;;
19621;SDS011;9958;33.196;-97.114;2022-11-20T09:59:26;3.28;;;1.10;;
19621;SDS011;9958;33.196;-97.114;2022-11-20T10:02:00;1.35;;;1.10;;
19621;SDS011;9958;33.196;-97.114;2022-11-20T10:04:33;1.60;;;1.00;;
19621;SDS011;9958;33.196;-97.114;2022-11-20T10:07:11;1.58;;;1.42;;
19621;SDS011;9958;33.196;-97.114;2022-11-20T10:09:45;4.50;;;1.17;;
19621;SDS011;9958;33.196;-97.114;2022-11-20T10:12:19;3.15;;;1.08;;
19621;SDS011;9958;33.196;-97.114;2022-11-20T10:15:00;1.30;;;1.20;;
19621;SDS011;9958;33.196;-97.114;2022-11-20T10:17:46;2.35;;;1.27;;
19621;SDS011;9958;33.196;-97.114;2022-11-20T10:20:46;2.03;;;1.13;;
19621;SDS011;9958;33.196;-97.114;2022-11-20T10:23:27;1.20;;;1.10;;
19621;SDS011;9958;33.196;-97.114;2022-11-20T10:26:12;1.63;;;1.52;;
19621;SDS011;9958;33.196;-97.114;2022-11-20T10:28:49;12.23;;;1.13;;
19621;SDS011;9958;33.196;-97.114;2022-11-20T10:31:28;1.52;;;1.42;;
19621;SDS011;9958;33.196;-97.114;2022-11-20T10:34:00;0.85;;;0.77;;
19621;SDS011;9958;33.196;-97.114;2022-11-20T10:36:34;1.30;;;1.20;;
19621;SDS011;9958;33.196;-97.114;2022-11-20T10:39:11;1.38;;;1.08;;
19621;SDS011;9958;33.196;-97.114;2022-11-20T10:41:46;1.90;;;1.48;;
19621;SDS011;9958;33.196;-97.114;2022-11-20T10:44:19;3.47;;;1.27;;
19621;SDS011;9958;33.196;-97.114;2022-11-20T10:47:03;0.95;;;0.95;;
19621;SDS011;9958;33.196;-97.114;2022-11-20T10:49:32;1.45;;;1.33;;
19621;SDS011;9958;33.196;-97.114;2022-11-20T10:52:04;1.48;;;1.05;;
19621;SDS011;9958;33.196;-97.114;2022-11-20T10:54:41;1.67;;;1.30;;
19621;SDS011;9958;33.196;-97.114;2022-11-20T10:57:17;2.53;;;0.90;;
19621;SDS011;9958;33.196;-97.114;2022-11-20T11:00:01;1.48;;;1.10;;
19621;SDS011;9958;33.196;-97.114;2022-11-20T11:02:32;1.38;;;0.95;;
19621;SDS011;9958;33.196;-97.114;2022-11-20T11:05:18;0.63;;;0.63;;
19621;SDS011;9958;33.196;-97.114;2022-11-20T11:07:53;2.33;;;1.20;;
19621;SDS011;9958;33.196;-97.114;2022-11-20T11:10:26;0.98;;;0.95;;
19621;SDS011;9958;33.196;-97.114;2022-11-20T11:13:00;0.90;;;0.90;;
19621;SDS011;9958;33.196;-97.114;2022-11-20T11:15:28;1.23;;;1.13;;
19621;SDS011;9958;33.196;-97.114;2022-11-20T11:18:03;1.48;;;1.35;;
19621;SDS011;9958;33.196;-97.114;2022-11-20T11:20:32;0.90;;;0.90;;
19621;SDS011;9958;33.196;-97.114;2022-11-20T11:23:00;1.13;;;1.05;;
19621;SDS011;9958;33.196;-97.114;2022-11-20T11:25:31;1.30;;;1.20;;
19621;SDS011;9958;33.196;-97.114;2022-11-20T11:28:02;1.75;;;1.23;;
19621;SDS011;9958;33.196;-97.114;2022-11-20T11:30:40;0.88;;;0.55;;
19621;SDS011;9958;33.196;-97.114;2022-11-20T11:33:10;1.13;;;0.95;;
19621;SDS011;9958;33.196;-97.114;2022-11-20T11:35:45;2.75;;;0.88;;
19621;SDS011;9958;33.196;-97.114;2022-11-20T11:38:16;0.57;;;0.57;;
19621;SDS011;9958;33.196;-97.114;2022-11-20T11:40:49;1.25;;;1.15;;
19621;SDS011;9958;33.196;-97.114;2022-11-20T11:43:22;0.85;;;0.82;;
19621;SDS011;9958;33.196;-97.114;2022-11-20T11:46:19;2.40;;;1.13;;
19621;SDS011;9958;33.196;-97.114;2022-11-20T11:48:55;1.33;;;1.00;;
19621;SDS011;9958;33.196;-97.114;2022-11-20T11:51:31;2.03;;;1.10;;
19621;SDS011;9958;33.196;-97.114;2022-11-20T11:54:04;1.00;;;1.00;;
19621;SDS011;9958;33.196;-97.114;2022-11-20T11:56:44;1.02;;;0.98;;
19621;SDS011;9958;33.196;-97.114;2022-11-20T11:59:15;2.08;;;1.25;;
19621;SDS011;9958;33.196;-97.114;2022-11-20T12:01:51;1.10;;;1.00;;
19621;SDS011;9958;33.196;-97.114;2022-11-20T12:04:25;1.13;;;1.02;;
19621;SDS011;9958;33.196;-97.114;2022-11-20T12:07:07;0.77;;;0.77;;
19621;SDS011;9958;33.196;-97.114;2022-11-20T12:09:43;0.80;;;0.80;;
19621;SDS011;9958;33.196;-97.114;2022-11-20T12:12:18;0.90;;;0.90;;
19621;SDS011;9958;33.196;-97.114;2022-11-20T12:14:49;1.52;;;1.10;;
19621;SDS011;9958;33.196;-97.114;2022-11-20T12:17:22;1.05;;;0.80;;
19621;SDS011;9958;33.196;-97.114;2022-11-20T12:19:51;1.05;;;1.00;;
19621;SDS011;9958;33.196;-97.114;2022-11-20T12:22:21;1.73;;;0.70;;
19621;SDS011;9958;33.196;-97.114;2022-11-20T12:24:59;2.03;;;1.00;;
19621;SDS011;9958;33.196;-97.114;2022-11-20T12:27:39;1.00;;;0.85;;
19621;SDS011;9958;33.196;-97.114;2022-11-20T12:30:16;0.80;;;0.80;;
19621;SDS011;9958;33.196;-97.114;2022-11-20T12:32:57;1.30;;;1.20;;
19621;SDS011;9958;33.196;-97.114;2022-11-20T12:35:47;0.80;;;0.77;;
19621;SDS011;9958;33.196;-97.114;2022-11-20T12:38:35;0.77;;;0.77;;
19621;SDS011;9958;33.196;-97.114;2022-11-20T12:41:19;0.70;;;0.70;;
19621;SDS011;9958;33.196;-97.114;2022-11-20T12:44:15;4.25;;;1.45;;
19621;SDS011;9958;33.196;-97.114;2022-11-20T12:47:14;1.15;;;1.15;;
19621;SDS011;9958;33.196;-97.114;2022-11-20T12:49:52;0.88;;;0.88;;
19621;SDS011;9958;33.196;-97.114;2022-11-20T12:52:34;1.30;;;1.20;;
19621;SDS011;9958;33.196;-97.114;2022-11-20T12:55:24;3.20;;;1.42;;
19621;SDS011;9958;33.196;-97.114;2022-11-20T12:57:58;1.13;;;1.05;;
19621;SDS011;9958;33.196;-97.114;2022-11-20T13:00:34;1.95;;;1.13;;
19621;SDS011;9958;33.196;-97.114;2022-11-20T13:06:05;0.95;;;0.88;;
19621;SDS011;9958;33.196;-97.114;2022-11-20T13:08:39;1.10;;;0.90;;
19621;SDS011;9958;33.196;-97.114;2022-11-20T13:11:11;1.45;;;1.27;;
19621;SDS011;9958;33.196;-97.114;2022-11-20T13:13:48;0.93;;;0.90;;
19621;SDS011;9958;33.196;-97.114;2022-11-20T13:16:46;0.77;;;0.77;;
19621;SDS011;9958;33.196;-97.114;2022-11-20T13:19:19;0.98;;;0.80;;
19621;SDS011;9958;33.196;-97.114;2022-11-20T13:21:49;1.33;;;1.15;;
19621;SDS011;9958;33.196;-97.114;2022-11-20T13:24:21;3.75;;;1.35;;
19621;SDS011;9958;33.196;-97.114;2022-11-20T13:27:00;2.45;;;1.75;;
19621;SDS011;9958;33.196;-97.114;2022-11-20T13:29:29;0.57;;;0.57;;
19621;SDS011;9958;33.196;-97.114;2022-11-20T13:32:05;3.15;;;0.90;;
19621;SDS011;9958;33.196;-97.114;2022-11-20T13:34:50;1.75;;;1.65;;
19621;SDS011;9958;33.196;-97.114;2022-11-20T13:37:27;1.52;;;1.10;;
19621;SDS011;9958;33.196;-97.114;2022-11-20T13:40:11;1.27;;;1.17;;
19621;SDS011;9958;33.196;-97.114;2022-11-20T13:42:54;4.55;;;1.30;;
19621;SDS011;9958;33.196;-97.114;2022-11-20T13:45:25;1.10;;;1.00;;
19621;SDS011;9958;33.196;-97.114;2022-11-20T13:47:56;1.50;;;1.15;;
19621;SDS011;9958;33.196;-97.114;2022-11-20T13:50:37;1.58;;;1.35;;
19621;SDS011;9958;33.196;-97.114;2022-11-20T13:53:13;2.55;;;1.23;;
19621;SDS011;9958;33.196;-97.114;2022-11-20T13:55:54;1.60;;;1.50;;
19621;SDS011;9958;33.196;-97.114;2022-11-20T13:58:30;1.38;;;1.27;;
19621;SDS011;9958;33.196;-97.114;2022-11-20T14:01:15;1.27;;;1.15;;
19621;SDS011;9958;33.196;-97.114;2022-11-20T14:03:48;2.80;;;1.38;;
19621;SDS011;9958;33.196;-97.114;2022-11-20T14:06:20;1.65;;;1.20;;
19621;SDS011;9958;33.196;-97.114;2022-11-20T14:08:54;1.30;;;1.02;;
19621;SDS011;9958;33.196;-97.114;2022-11-20T14:11:23;0.90;;;0.90;;
19621;SDS011;9958;33.196;-97.114;2022-11-20T14:13:54;1.20;;;1.10;;
19621;SDS011;9958;33.196;-97.114;2022-11-20T14:16:27;1.42;;;1.20;;
19621;SDS011;9958;33.196;-97.114;2022-11-20T14:18:58;1.63;;;1.52;;
19621;SDS011;9958;33.196;-97.114;2022-11-20T14:21:51;1.35;;;1.10;;
19621;SDS011;9958;33.196;-97.114;2022-11-20T14:24:21;0.90;;;0.90;;
19621;SDS011;9958;33.196;-97.114;2022-11-20T14:26:50;6.63;;;1.40;;
19621;SDS011;9958;33.196;-97.114;2022-11-20T14:29:20;1.60;;;1.38;;
19621;SDS011;9958;33.196;-97.114;2022-11-20T14:31:54;2.53;;;1.48;;
19621;SDS011;9958;33.196;-97.114;2022-11-20T14:34:27;1.27;;;1.17;;
19621;SDS011;9958;33.196;-97.114;2022-11-20T14:36:57;3.95;;;1.55;;
19621;SDS011;9958;33.196;-97.114;2022-11-20T14:39:28;1.73;;;1.60;;
19621;SDS011;9958;33.196;-97.114;2022-11-20T14:41:59;3.53;;;1.55;;
19621;SDS011;9958;33.196;-97.114;2022-11-20T14:44:27;1.90;;;1.40;;
19621;SDS011;9958;33.196;-97.114;2022-11-20T14:46:59;2.22;;;1.33;;
19621;SDS011;9958;33.196;-97.114;2022-11-20T14:49:30;1.60;;;1.30;;
19621;SDS011;9958;33.196;-97.114;2022-11-20T14:52:00;2.15;;;1.25;;
19621;SDS011;9958;33.196;-97.114;2022-11-20T14:54:43;0.90;;;0.90;;
19621;SDS011;9958;33.196;-97.114;2022-11-20T14:57:23;3.03;;;0.90;;
19621;SDS011;9958;33.196;-97.114;2022-11-20T15:00:06;1.10;;;1.00;;
19621;SDS011;9958;33.196;-97.114;2022-11-20T15:02:46;1.73;;;1.08;;
19621;SDS011;9958;33.196;-97.114;2022-11-20T15:05:18;1.27;;;1.17;;